Time;durP1;ratioP1;P1;durP2;ratioP2;P2;SDS_P1;SDS_P2;PMS_P1;PMS_P2;Temp;Humidity;BMP_temperature;BMP_pressure;BME280_temperature;BME280_humidity;BME280_pressure;Samples;Min_cycle;Max_cycle;Signal;HPM_P1;HPM_P2
2022/05/01 00:02:21;;;;;;;30.72;18.02;;;;;;;5.47;84.33;95069.25;1724807;83;20962;-51
2022/05/01 00:04:48;;;;;;;31.07;17.92;;;;;;;5.46;84.38;95074.52;1724798;83;21221;-49
2022/05/01 00:07:15;;;;;;;34.60;19.17;;;;;;;5.48;84.45;95074.31;1724802;83;21438;-51
2022/05/01 00:09:42;;;;;;;22.48;15.90;;;;;;;5.50;84.56;95062.97;1724755;83;21110;-50
2022/05/01 00:12:10;;;;;;;28.32;15.50;;;;;;;5.54;84.55;95071.31;1724726;81;20959;-50
2022/05/01 00:14:36;;;;;;;20.55;14.47;;;;;;;5.51;84.39;95064.52;1724847;82;21101;-50
2022/05/01 00:17:03;;;;;;;23.55;14.30;;;;;;;5.51;84.63;95071.34;1725007;83;21454;-50
2022/05/01 00:19:30;;;;;;;16.48;12.75;;;;;;;5.54;84.55;95067.22;1724740;83;20954;-50
2022/05/01 00:21:58;;;;;;;20.70;13.62;;;;;;;5.56;84.44;95064.06;1724767;83;20974;-50
2022/05/01 00:24:26;;;;;;;20.57;14.30;;;;;;;5.53;84.51;95065.67;1724826;83;21002;-50
2022/05/01 00:26:54;;;;;;;18.48;14.58;;;;;;;5.52;84.60;95067.42;1724868;83;21061;-50
2022/05/01 00:29:20;;;;;;;24.82;14.40;;;;;;;5.45;84.60;95063.42;1724864;83;21129;-51
2022/05/01 00:31:48;;;;;;;28.80;17.60;;;;;;;5.41;84.71;95059.97;1717875;82;20987;-50
2022/05/01 00:37:00;;;;;;;34.92;20.23;;;;;;;5.41;84.77;95065.42;1712750;83;21507;-50
2022/05/01 00:39:27;;;;;;;35.25;23.73;;;;;;;5.39;84.92;95065.81;1712551;83;21438;-50
2022/05/01 00:41:55;;;;;;;42.23;24.47;;;;;;;5.37;84.98;95061.94;1712453;83;20991;-50
2022/05/01 00:44:22;;;;;;;35.38;23.47;;;;;;;5.34;85.05;95058.66;1712345;83;21011;-49
2022/05/01 00:46:51;;;;;;;34.35;19.70;;;;;;;5.32;85.14;95059.66;1712418;82;21101;-50
2022/05/01 00:49:23;;;;;;;27.87;17.12;;;;;;;5.31;85.17;95054.02;1712527;83;20970;-50
2022/05/01 00:52:03;;;;;;;22.50;16.17;;;;;;;5.34;85.02;95055.94;1716302;81;21086;-50
2022/05/01 00:54:30;;;;;;;30.25;16.65;;;;;;;5.35;84.90;95059.63;1717324;83;21262;-50
2022/05/01 00:57:01;;;;;;;40.43;22.05;;;;;;;5.35;85.07;95058.84;1719747;83;20952;-51
2022/05/01 00:59:29;;;;;;;35.98;23.92;;;;;;;5.35;84.85;95056.91;1720113;83;21109;-51
2022/05/01 01:01:58;;;;;;;36.40;20.00;;;;;;;5.33;84.97;95053.02;1719909;83;20957;-50
2022/05/01 01:04:25;;;;;;;41.40;25.48;;;;;;;5.36;84.96;95060.39;1719932;83;21020;-49
2022/05/01 01:06:51;;;;;;;43.98;24.50;;;;;;;5.35;84.81;95054.17;1720004;83;21980;-50
2022/05/01 01:09:18;;;;;;;39.18;21.27;;;;;;;5.32;84.86;95053.63;1719761;83;21008;-51
2022/05/01 01:11:44;;;;;;;31.02;20.02;;;;;;;5.28;84.97;95045.29;1719850;83;20968;-50
2022/05/01 01:14:12;;;;;;;24.80;16.90;;;;;;;5.21;85.09;95050.83;1719894;83;21051;-51
2022/05/01 01:16:44;;;;;;;27.17;17.02;;;;;;;5.17;85.15;95048.70;1719873;83;21413;-50
2022/05/01 01:19:08;;;;;;;27.60;17.48;;;;;;;5.11;85.11;95059.88;1719697;83;21282;-50
2022/05/01 01:21:36;;;;;;;30.55;18.17;;;;;;;5.06;85.20;95054.87;1703244;83;21015;-49
2022/05/01 01:24:06;;;;;;;32.35;18.60;;;;;;;5.00;85.26;95059.19;1719909;82;20992;-49
2022/05/01 01:26:34;;;;;;;43.48;23.92;;;;;;;4.99;85.57;95053.55;1703774;83;21068;-49
2022/05/01 01:29:01;;;;;;;36.25;20.08;;;;;;;5.00;85.87;95056.47;1720001;83;21025;-49
2022/05/01 01:31:42;;;;;;;43.55;23.38;;;;;;;5.00;85.79;95059.19;1726130;81;21251;-49
2022/05/01 01:34:14;;;;;;;32.95;20.45;;;;;;;5.00;85.69;95056.47;1744733;82;20960;-50
2022/05/01 01:36:42;;;;;;;36.08;21.00;;;;;;;4.95;85.64;95055.55;1745125;82;21107;-50
2022/05/01 01:39:10;;;;;;;33.53;18.50;;;;;;;4.91;85.65;95063.56;1744974;81;21429;-49
2022/05/01 01:41:37;;;;;;;27.87;18.55;;;;;;;4.88;85.87;95061.08;1744803;81;20957;-50
2022/05/01 01:44:05;;;;;;;33.63;19.25;;;;;;;4.86;86.04;95059.34;1688603;82;21252;-50
2022/05/01 01:46:32;;;;;;;33.70;20.70;;;;;;;4.83;86.14;95058.00;1735916;82;21031;-50
2022/05/01 01:48:59;;;;;;;38.98;22.22;;;;;;;4.77;86.33;95052.20;1744703;82;20997;-50
2022/05/01 01:51:26;;;;;;;37.08;21.02;;;;;;;4.76;86.47;95058.83;1744867;82;20977;-49
2022/05/01 01:53:53;;;;;;;35.03;20.70;;;;;;;4.77;86.59;95056.29;1744764;81;21059;-50
2022/05/01 01:56:20;;;;;;;35.25;20.68;;;;;;;4.80;86.57;95052.00;1744837;82;22130;-50
2022/05/01 01:58:48;;;;;;;38.25;20.05;;;;;;;4.80;86.57;95048.67;1744897;82;21464;-50
2022/05/01 02:01:14;;;;;;;37.40;19.90;;;;;;;4.80;86.58;95057.45;1744838;82;21004;-49
2022/05/01 02:03:41;;;;;;;27.07;18.05;;;;;;;4.75;86.65;95062.73;1744815;82;21461;-49
2022/05/01 02:06:09;;;;;;;32.38;20.35;;;;;;;4.73;86.76;95058.28;1744820;82;20940;-49
2022/05/01 02:08:37;;;;;;;49.00;24.60;;;;;;;4.68;86.68;95055.98;1744875;81;20948;-50
2022/05/01 02:11:04;;;;;;;41.25;25.08;;;;;;;4.68;86.91;95058.72;1744681;82;21005;-49
2022/05/01 02:13:32;;;;;;;41.60;21.93;;;;;;;4.71;86.89;95053.82;1745014;82;20965;-50
2022/05/01 02:15:59;;;;;;;36.93;20.02;;;;;;;4.74;86.93;95050.86;1744739;81;21008;-49
2022/05/01 02:18:26;;;;;;;34.78;20.55;;;;;;;4.74;86.87;95048.92;1744899;81;21017;-50
2022/05/01 02:23:40;;;;;;;33.23;19.77;;;;;;;4.66;86.60;95047.45;1744802;82;20961;-50
2022/05/01 02:26:07;;;;;;;38.75;21.10;;;;;;;4.64;86.91;95049.77;1744711;81;21104;-50
2022/05/01 02:28:33;;;;;;;36.53;21.65;;;;;;;4.68;86.93;95049.18;1744976;81;21500;-50
2022/05/01 02:31:00;;;;;;;36.68;19.87;;;;;;;4.73;86.87;95046.59;1744873;81;20965;-50
2022/05/01 02:33:27;;;;;;;37.98;19.82;;;;;;;4.74;87.05;95044.05;1747325;82;21148;-50
2022/05/01 02:35:54;;;;;;;36.10;18.37;;;;;;;4.75;87.04;95042.30;1747635;81;20992;-50
2022/05/01 02:38:20;;;;;;;26.42;17.57;;;;;;;4.73;86.83;95043.29;1747645;81;20972;-50
2022/05/01 02:40:47;;;;;;;28.05;16.85;;;;;;;4.70;86.83;95042.73;1747633;81;20993;-50
2022/05/01 02:43:14;;;;;;;29.48;16.52;;;;;;;4.71;86.79;95042.13;1747594;82;21003;-49
2022/05/01 02:45:40;;;;;;;27.80;16.82;;;;;;;4.71;86.65;95044.28;1747560;82;21254;-48
2022/05/01 02:48:09;;;;;;;29.37;17.73;;;;;;;4.65;86.64;95044.53;1747584;82;20953;-50
2022/05/01 02:50:37;;;;;;;29.00;17.15;;;;;;;4.62;86.80;95040.47;1747831;82;20985;-49
2022/05/01 02:53:04;;;;;;;28.15;17.45;;;;;;;4.58;86.73;95046.55;1747708;82;21008;-49
2022/05/01 02:55:37;;;;;;;28.02;16.97;;;;;;;4.54;86.71;95042.47;1747572;82;21055;-50
2022/05/01 02:58:00;;;;;;;30.30;17.05;;;;;;;4.53;86.77;95045.59;1746948;81;21282;-50
2022/05/01 03:00:27;;;;;;;23.83;14.78;;;;;;;4.53;86.87;95045.02;1747644;81;20953;-49
2022/05/01 03:02:57;;;;;;;25.55;17.15;;;;;;;4.52;86.99;95042.11;1747596;81;20980;-49
2022/05/01 03:05:27;;;;;;;28.60;17.55;;;;;;;4.52;86.86;95036.66;1747722;82;21004;-50
2022/05/01 03:07:56;;;;;;;32.60;19.73;;;;;;;4.50;86.69;95041.73;1747668;82;21016;-49
2022/05/01 03:10:23;;;;;;;39.67;20.27;;;;;;;4.44;86.73;95041.20;1747693;82;21845;-50
2022/05/01 03:12:51;;;;;;;32.83;18.92;;;;;;;4.38;86.90;95043.56;1747663;81;20948;-49
2022/05/01 03:15:18;;;;;;;30.45;17.10;;;;;;;4.38;87.01;95044.92;1747672;82;20981;-49
2022/05/01 03:23:17;;;;;;;26.30;16.90;;;;;;;4.30;87.20;95050.25;1747722;82;21173;-50
2022/05/01 03:25:45;;;;;;;28.45;17.40;;;;;;;4.25;87.20;95054.73;1747652;82;20996;-49
2022/05/01 03:28:12;;;;;;;27.20;17.27;;;;;;;4.19;87.22;95050.89;1747611;82;20953;-50
2022/05/01 03:30:40;;;;;;;17.05;13.35;;;;;;;4.19;87.40;95051.47;1747697;81;21008;-50
2022/05/01 03:33:07;;;;;;;19.62;14.30;;;;;;;4.22;87.45;95055.53;1745720;82;21563;-50
2022/05/01 03:35:37;;;;;;;20.85;13.48;;;;;;;4.25;87.77;95052.02;1744923;81;21496;-49
2022/05/01 03:38:06;;;;;;;30.25;20.50;;;;;;;4.31;87.90;95050.44;1745265;82;21000;-50
2022/05/01 03:40:35;;;;;;;23.30;16.65;;;;;;;4.39;87.65;95056.00;1744838;81;21531;-53
2022/05/01 03:43:04;;;;;;;15.35;12.73;;;;;;;4.41;87.24;95053.66;1744821;82;20985;-51
2022/05/01 03:45:31;;;;;;;25.15;17.50;;;;;;;4.41;86.95;95059.10;1744358;82;21433;-50
2022/05/01 03:48:00;;;;;;;26.42;17.92;;;;;;;4.45;87.07;95055.75;1744797;82;21136;-56
2022/05/01 03:50:27;;;;;;;22.35;14.95;;;;;;;4.50;87.21;95059.44;1744627;82;20997;-50
2022/05/01 03:52:54;;;;;;;25.50;14.85;;;;;;;4.55;87.00;95059.00;1744978;82;21496;-49
2022/05/01 03:55:22;;;;;;;19.50;14.60;;;;;;;4.53;86.83;95060.00;1744718;81;21418;-48
2022/05/01 03:57:48;;;;;;;20.80;12.18;;;;;;;4.54;86.87;95061.55;1745074;81;21015;-50
2022/05/01 04:00:18;;;;;;;19.92;12.45;;;;;;;4.57;86.77;95063.46;1744675;81;21230;-50
2022/05/01 04:02:44;;;;;;;19.80;15.08;;;;;;;4.58;86.82;95059.56;1744677;81;21500;-50
2022/05/01 04:05:12;;;;;;;20.60;13.90;;;;;;;4.57;86.71;95062.09;1744769;82;20964;-51
2022/05/01 04:07:40;;;;;;;18.23;12.93;;;;;;;4.58;86.73;95063.64;1744695;80;21000;-49
2022/05/01 04:10:08;;;;;;;20.70;13.75;;;;;;;4.54;86.58;95069.72;1744888;81;21535;-50
2022/05/01 04:12:37;;;;;;;23.27;12.78;;;;;;;4.50;86.59;95068.19;1744979;81;21227;-52
2022/05/01 04:15:09;;;;;;;21.30;13.43;;;;;;;4.49;86.54;95072.08;1744550;82;21575;-50
2022/05/01 04:17:41;;;;;;;18.73;13.45;;;;;;;4.49;86.55;95064.70;1745078;81;21008;-49
2022/05/01 04:20:16;;;;;;;21.20;12.93;;;;;;;4.55;86.71;95053.55;1744882;82;21480;-49
2022/05/01 04:22:45;;;;;;;21.42;13.22;;;;;;;4.62;86.73;95056.81;1744695;82;21099;-50
2022/05/01 04:25:24;;;;;;;23.95;13.45;;;;;;;4.63;86.49;95059.73;1744661;81;21240;-51
2022/05/01 04:28:00;;;;;;;15.60;12.63;;;;;;;4.63;86.52;95062.45;1744629;81;21528;-50
2022/05/01 04:30:27;;;;;;;15.32;12.45;;;;;;;4.68;86.61;95064.16;1744035;81;21017;-49
2022/05/01 04:33:00;;;;;;;16.05;13.28;;;;;;;4.74;86.29;95069.94;1745708;81;21480;-51
2022/05/01 04:35:38;;;;;;;19.50;12.55;;;;;;;4.74;86.17;95066.64;1742385;82;20972;-51
2022/05/01 04:38:08;;;;;;;18.30;13.48;;;;;;;4.72;86.11;95064.11;1747610;82;21321;-50
2022/05/01 04:40:43;;;;;;;24.47;14.30;;;;;;;4.67;86.08;95061.83;1747577;82;21487;-49
2022/05/01 04:43:17;;;;;;;29.45;14.30;;;;;;;4.62;86.25;95056.81;1747673;82;20956;-50
2022/05/01 04:45:46;;;;;;;36.70;14.38;;;;;;;4.61;86.25;95058.75;1747595;82;21016;-50
2022/05/01 04:48:15;;;;;;;27.05;15.38;;;;;;;4.64;86.27;95057.95;1747553;82;21013;-50
2022/05/01 04:50:42;;;;;;;20.12;16.82;;;;;;;4.63;86.19;95056.40;1747647;82;21131;-49
2022/05/01 04:53:12;;;;;;;38.92;23.55;;;;;;;4.60;86.21;95058.56;1747585;82;21433;-50
2022/05/01 04:55:40;;;;;;;25.57;19.67;;;;;;;4.59;86.49;95058.98;1747487;82;20960;-50
2022/05/01 04:58:08;;;;;;;34.83;22.40;;;;;;;4.60;86.54;95054.48;1747581;82;21086;-51
2022/05/01 05:00:35;;;;;;;32.85;22.73;;;;;;;4.64;86.56;95058.55;1748010;80;21504;-49
2022/05/01 05:03:03;;;;;;;41.08;26.52;;;;;;;4.67;86.52;95057.17;1747786;82;21190;-49
2022/05/01 05:05:38;;;;;;;50.65;33.10;;;;;;;4.69;86.53;95060.84;1747630;82;20996;-49
2022/05/01 05:10:49;;;;;;;55.67;31.97;;;;;;;4.62;86.63;95052.13;1747847;82;21003;-50
2022/05/01 05:13:22;;;;;;;51.48;33.92;;;;;;;4.61;86.78;95047.09;1747691;80;21024;-50
2022/05/01 05:15:47;;;;;;;47.93;28.32;;;;;;;4.64;86.83;95048.41;1747756;82;21255;-51
2022/05/01 05:18:14;;;;;;;49.50;33.35;;;;;;;4.72;86.95;95057.30;1747709;82;21487;-50
2022/05/01 05:20:41;;;;;;;55.30;34.88;;;;;;;4.81;87.00;95057.62;1747698;82;20944;-50
2022/05/01 05:23:07;;;;;;;55.28;34.80;;;;;;;4.88;86.97;95051.53;1747799;80;20956;-50
2022/05/01 05:25:34;;;;;;;57.88;35.20;;;;;;;5.00;87.21;95058.44;1747755;82;21503;-50
2022/05/01 05:28:01;;;;;;;52.98;34.20;;;;;;;5.11;86.81;95048.21;1747847;82;22009;-50
2022/05/01 05:30:28;;;;;;;53.85;30.05;;;;;;;5.21;86.86;95042.65;1747622;80;20989;-50
2022/05/01 05:32:54;;;;;;;36.40;26.68;;;;;;;5.39;86.79;95048.08;1747254;81;21063;-50
2022/05/01 05:35:21;;;;;;;44.25;28.25;;;;;;;5.55;86.57;95046.14;1744804;81;21476;-50
2022/05/01 05:37:48;;;;;;;42.27;27.75;;;;;;;5.72;86.39;95040.49;1744810;81;20957;-49
2022/05/01 05:40:15;;;;;;;32.80;23.12;;;;;;;5.88;86.09;95040.72;1744727;82;21258;-50
2022/05/01 05:42:45;;;;;;;31.30;21.70;;;;;;;6.08;85.87;95028.53;1744706;82;20962;-49
2022/05/01 05:45:13;;;;;;;27.50;19.65;;;;;;;6.29;85.63;95032.33;1744740;82;20964;-50
2022/05/01 05:47:40;;;;;;;20.97;14.18;;;;;;;6.53;85.05;95031.20;1744879;80;20988;-50
2022/05/01 05:50:09;;;;;;;18.05;13.80;;;;;;;6.82;84.16;95035.02;1744887;82;21048;-50
2022/05/01 05:52:36;;;;;;;16.65;12.73;;;;;;;7.02;82.78;95027.64;1744827;82;21276;-52
2022/05/01 05:55:04;;;;;;;38.83;15.13;;;;;;;7.15;81.87;95028.77;1744736;82;21044;-50
2022/05/01 05:57:30;;;;;;;24.45;12.78;;;;;;;7.31;81.19;95024.77;1744734;82;20964;-50
2022/05/01 05:59:57;;;;;;;25.90;12.93;;;;;;;7.50;80.46;95028.11;1745165;81;21390;-50
2022/05/01 06:02:24;;;;;;;22.05;10.43;;;;;;;7.70;79.98;95021.28;1744862;81;21008;-50
2022/05/01 06:04:51;;;;;;;14.15;9.85;;;;;;;7.93;78.93;95027.45;1744842;81;21144;-50
2022/05/01 06:07:19;;;;;;;10.85;9.28;;;;;;;8.08;77.56;95019.70;1744905;80;20984;-50
2022/05/01 06:09:46;;;;;;;9.35;7.28;;;;;;;8.18;76.61;95016.76;1744938;80;21559;-51
2022/05/01 06:12:13;;;;;;;13.40;7.95;;;;;;;8.27;75.79;95021.66;1744776;82;21044;-49
2022/05/01 06:14:40;;;;;;;12.93;10.23;;;;;;;8.35;75.33;95021.08;1744749;82;20965;-50
2022/05/01 06:17:08;;;;;;;12.58;9.90;;;;;;;8.45;74.72;95020.05;1744733;81;21259;-51
2022/05/01 06:19:35;;;;;;;17.75;11.45;;;;;;;8.57;74.47;95013.91;1744764;82;21060;-50
2022/05/01 06:22:02;;;;;;;17.05;11.45;;;;;;;8.66;74.21;95008.58;1744794;82;21421;-50
2022/05/01 06:24:29;;;;;;;15.28;10.93;;;;;;;8.75;74.13;95012.88;1744712;82;20957;-51
2022/05/01 06:26:56;;;;;;;19.37;10.30;;;;;;;8.90;73.85;95011.34;1744713;82;21020;-50
2022/05/01 06:29:24;;;;;;;15.25;11.60;;;;;;;9.10;73.33;95009.27;1744845;81;20990;-53
2022/05/01 06:31:51;;;;;;;19.05;10.60;;;;;;;9.25;72.83;95010.45;1744956;82;20949;-50
2022/05/01 06:34:18;;;;;;;13.78;8.93;;;;;;;9.42;71.78;95000.97;1744586;82;20961;-51
2022/05/01 06:36:45;;;;;;;19.77;10.28;;;;;;;9.55;71.33;95007.27;1744889;82;21060;-52
2022/05/01 06:39:11;;;;;;;15.23;10.00;;;;;;;9.70;70.76;95004.30;1744743;81;21035;-51
2022/05/01 06:41:38;;;;;;;16.55;10.03;;;;;;;9.87;70.21;95000.28;1744996;81;21445;-51
2022/05/01 06:44:06;;;;;;;9.90;8.58;;;;;;;10.01;69.42;94997.92;1744591;82;20980;-52
2022/05/01 06:46:32;;;;;;;18.75;10.03;;;;;;;10.18;68.75;94994.50;1744677;81;21016;-50
2022/05/01 06:48:59;;;;;;;22.37;10.55;;;;;;;10.31;68.59;94992.55;1744732;82;20961;-52
2022/05/01 06:51:25;;;;;;;20.48;9.73;;;;;;;10.46;68.02;94995.00;1745122;82;20953;-50
2022/05/01 06:53:52;;;;;;;15.83;9.43;;;;;;;10.63;67.47;94993.09;1744811;81;21226;-51
2022/05/01 06:56:18;;;;;;;12.20;8.75;;;;;;;10.83;66.97;94988.87;1744726;82;20950;-52
2022/05/01 06:58:45;;;;;;;14.18;9.93;;;;;;;10.98;65.97;94988.58;1744803;81;20980;-52
2022/05/01 07:01:12;;;;;;;14.65;9.30;;;;;;;11.09;65.29;94989.00;1742573;81;21019;-51
2022/05/01 07:03:40;;;;;;;15.98;8.98;;;;;;;11.19;65.09;94990.61;1734857;82;20939;-52
2022/05/01 07:06:06;;;;;;;10.30;7.35;;;;;;;11.34;64.85;94982.03;1734768;81;21147;-51
2022/05/01 07:08:33;;;;;;;10.20;7.40;;;;;;;11.55;64.06;94980.53;1734636;82;21050;-51
2022/05/01 07:11:00;;;;;;;10.08;6.78;;;;;;;11.77;63.77;94986.85;1733915;82;21073;-50
2022/05/01 07:13:27;;;;;;;9.08;6.22;;;;;;;11.98;64.50;94978.59;1734681;82;20983;-52
2022/05/01 07:15:54;;;;;;;7.30;6.17;;;;;;;12.22;63.86;94977.47;1734761;82;20991;-50
2022/05/01 07:18:21;;;;;;;8.63;7.33;;;;;;;12.45;63.49;94981.89;1734659;82;21237;-50
2022/05/01 07:20:48;;;;;;;13.18;6.70;;;;;;;12.67;62.86;94972.93;1734487;82;21007;-52
2022/05/01 07:23:15;;;;;;;10.23;6.92;;;;;;;12.89;62.06;94971.63;1733746;82;21002;-51
2022/05/01 07:25:42;;;;;;;12.80;7.35;;;;;;;13.09;60.78;94972.64;1734770;82;20963;-51
2022/05/01 07:28:09;;;;;;;9.35;6.35;;;;;;;13.26;61.28;94968.38;1734719;82;21002;-51
2022/05/01 07:30:35;;;;;;;9.65;6.75;;;;;;;13.50;61.01;94956.87;1734704;82;21259;-51
2022/05/01 07:33:02;;;;;;;9.83;6.15;;;;;;;13.76;60.28;94953.33;1734520;82;20931;-53
2022/05/01 07:35:29;;;;;;;6.20;5.60;;;;;;;13.96;59.05;94951.48;1724878;83;20947;-53
2022/05/01 07:37:56;;;;;;;6.08;5.50;;;;;;;14.14;57.93;94948.67;1724792;82;21002;-51
2022/05/01 07:40:24;;;;;;;7.62;5.78;;;;;;;14.32;57.20;94948.66;1724919;83;20998;-51
2022/05/01 07:42:51;;;;;;;12.13;6.17;;;;;;;14.44;56.15;94951.22;1724751;83;21266;-52
2022/05/01 07:45:18;;;;;;;7.28;5.47;;;;;;;14.56;56.56;94946.87;1724700;82;20951;-52
2022/05/01 07:47:45;;;;;;;6.37;4.80;;;;;;;14.75;56.47;94947.54;1724844;83;20970;-50
2022/05/01 07:50:12;;;;;;;8.55;4.80;;;;;;;15.00;55.93;94938.81;1724840;83;20938;-50
2022/05/01 07:52:40;;;;;;;7.25;5.33;;;;;;;15.27;54.68;94942.78;1724803;83;21505;-51
2022/05/01 07:55:09;;;;;;;4.53;4.12;;;;;;;15.49;54.29;94929.40;1724736;82;21145;-50
2022/05/01 07:57:36;;;;;;;10.53;5.22;;;;;;;15.73;53.62;94927.38;1724754;83;21486;-51
2022/05/01 08:00:06;;;;;;;7.05;4.50;;;;;;;15.94;52.59;94929.77;1724836;83;32696;-53
2022/05/01 08:04:27;;;;;;;5.75;4.55;;;;;;;16.16;52.42;94927.42;1724924;83;21029;-52
2022/05/01 08:05:07;;;;;;;11.12;5.65;;;;;;;16.41;52.58;94924.86;1724091;82;21565;-50
2022/05/01 08:07:34;;;;;;;6.03;5.00;;;;;;;16.71;51.91;94922.80;1724720;82;21169;-51
2022/05/01 08:10:01;;;;;;;6.22;4.80;;;;;;;16.93;53.37;94919.70;1724798;83;20958;-53
2022/05/01 08:12:29;;;;;;;6.15;4.87;;;;;;;17.11;51.49;94921.48;1724827;82;21006;-51
2022/05/01 08:14:57;;;;;;;5.65;4.30;;;;;;;17.17;50.48;94923.09;1724774;83;21518;-53
2022/05/01 08:17:24;;;;;;;6.55;4.30;;;;;;;17.22;50.20;94918.84;1724928;83;21014;-52
2022/05/01 08:22:37;;;;;;;6.25;3.67;;;;;;;17.38;48.56;94917.71;1724677;83;20982;-52
2022/05/01 08:25:04;;;;;;;3.55;3.25;;;;;;;17.64;49.52;94910.82;1724778;83;21146;-56
2022/05/01 08:27:31;;;;;;;6.55;4.28;;;;;;;17.89;48.72;94904.51;1725018;83;21006;-53
2022/05/01 08:29:58;;;;;;;5.20;4.08;;;;;;;18.12;49.59;94902.08;1724700;83;20967;-52
2022/05/01 08:32:26;;;;;;;5.33;3.90;;;;;;;18.38;48.41;94894.65;1724736;83;21252;-51
2022/05/01 08:34:53;;;;;;;9.53;3.98;;;;;;;18.67;45.45;94892.96;1724599;81;21049;-51
2022/05/01 08:37:19;;;;;;;5.10;3.42;;;;;;;18.81;45.07;94893.45;1724800;83;20966;-52
2022/05/01 08:39:46;;;;;;;11.48;3.77;;;;;;;18.95;44.10;94886.96;1724745;82;20958;-52
2022/05/01 08:42:13;;;;;;;16.80;13.40;;;;;;;19.13;42.09;94889.34;1724827;82;21040;-52
2022/05/01 08:44:39;;;;;;;8.60;5.53;;;;;;;19.20;40.97;94888.90;1724798;82;21264;-53
2022/05/01 08:47:27;;;;;;;9.63;4.12;;;;;;;19.14;39.94;94890.88;1724672;83;21006;-52
2022/05/01 08:49:57;;;;;;;4.78;3.60;;;;;;;18.96;39.64;94884.92;1724713;83;21037;-52
2022/05/01 08:52:25;;;;;;;5.50;3.30;;;;;;;18.80;39.56;94884.95;1725011;83;21018;-53
2022/05/01 08:54:52;;;;;;;3.85;3.20;;;;;;;18.68;39.53;94884.73;1729169;79;21068;-51
2022/05/01 08:57:21;;;;;;;4.37;3.02;;;;;;;18.62;39.60;94886.73;1752348;81;21158;-53
2022/05/01 08:59:53;;;;;;;5.90;3.42;;;;;;;18.56;39.64;94887.32;1752561;81;20990;-51
2022/05/01 09:02:21;;;;;;;4.92;3.47;;;;;;;18.44;39.95;94877.34;1753142;81;20986;-53
2022/05/01 09:04:48;;;;;;;6.53;3.62;;;;;;;18.43;40.37;94875.06;1753239;81;20999;-51
2022/05/01 09:07:15;;;;;;;3.72;3.33;;;;;;;18.41;40.92;94881.73;1753071;81;21100;-51
2022/05/01 09:09:42;;;;;;;4.47;3.58;;;;;;;18.42;42.48;94875.68;1753499;81;21258;-53
2022/05/01 09:14:56;;;;;;;5.20;3.85;;;;;;;18.43;41.16;94873.03;1688702;85;21066;-50
2022/05/01 09:17:23;;;;;;;4.60;3.50;;;;;;;18.30;39.79;94862.16;1753218;81;21054;-52
2022/05/01 09:19:57;;;;;;;11.55;3.98;;;;;;;18.23;40.02;94856.98;1753231;81;20971;-52
2022/05/01 09:22:21;;;;;;;4.35;3.27;;;;;;;18.27;40.60;94858.33;1687936;85;21162;-50
2022/05/01 09:24:53;;;;;;;3.55;3.10;;;;;;;18.49;40.98;94855.72;1753289;81;21002;-52
2022/05/01 09:27:30;;;;;;;3.27;2.77;;;;;;;18.77;43.35;94850.33;1753372;81;21031;-54
2022/05/01 09:30:10;;;;;;;5.42;3.27;;;;;;;18.98;42.04;94851.10;1752885;81;21046;-53
2022/05/01 09:32:39;;;;;;;6.30;3.27;;;;;;;19.18;41.32;94835.64;1751689;81;21053;-52
2022/05/01 09:35:10;;;;;;;4.75;3.40;;;;;;;19.45;42.03;94837.02;1753065;81;21168;-52
2022/05/01 09:37:41;;;;;;;5.50;3.10;;;;;;;19.67;41.53;94839.88;1728393;81;20978;-51
2022/05/01 09:40:09;;;;;;;3.17;2.87;;;;;;;19.83;40.69;94835.73;1753232;81;21462;-51
2022/05/01 09:42:36;;;;;;;4.67;3.08;;;;;;;20.00;41.49;94830.95;1753474;81;21015;-52
2022/05/01 09:45:14;;;;;;;8.88;3.40;;;;;;;20.22;41.50;94831.73;1753149;81;21041;-56
2022/05/01 09:47:44;;;;;;;4.75;3.00;;;;;;;20.47;39.04;94827.95;1688569;85;21101;-52
2022/05/01 09:50:13;;;;;;;4.87;3.00;;;;;;;20.59;36.52;94834.28;1688488;85;21007;-53
2022/05/01 09:52:59;;;;;;;3.27;2.75;;;;;;;20.62;34.72;94834.66;1688725;85;21102;-52
2022/05/01 09:55:27;;;;;;;5.25;3.22;;;;;;;20.64;34.31;94832.11;1686502;84;21097;-52
2022/05/01 09:58:12;;;;;;;5.62;3.27;;;;;;;20.43;34.28;94830.86;1687653;83;21114;-56
2022/05/01 10:00:44;;;;;;;5.53;3.02;;;;;;;20.11;34.29;94824.64;1689679;84;21477;-52
2022/05/01 10:03:31;;;;;;;8.35;3.15;;;;;;;19.77;34.61;94830.75;1690397;84;20957;-51
2022/05/01 10:05:59;;;;;;;3.77;2.80;;;;;;;19.52;34.67;94830.32;1690115;85;21076;-52
2022/05/01 10:08:26;;;;;;;4.35;3.27;;;;;;;19.36;34.86;94828.88;1690450;85;21020;-52
2022/05/01 10:10:59;;;;;;;5.08;3.87;;;;;;;19.25;35.32;94828.83;1690327;85;21074;-51
2022/05/01 10:13:27;;;;;;;3.72;3.27;;;;;;;19.12;35.52;94826.46;1690072;85;22033;-52
2022/05/01 10:15:54;;;;;;;5.10;4.60;;;;;;;19.04;35.20;94830.22;1690003;84;21031;-53
2022/05/01 10:18:21;;;;;;;6.00;3.30;;;;;;;18.91;35.47;94833.45;1690142;85;20969;-51
2022/05/01 10:20:48;;;;;;;5.37;3.27;;;;;;;18.87;35.49;94831.51;1672234;85;20985;-53
2022/05/01 10:23:16;;;;;;;7.03;3.10;;;;;;;18.85;36.05;94827.72;1690232;83;21532;-53
2022/05/01 10:26:16;;;;;;;3.35;2.92;;;;;;;18.80;36.27;94827.81;1690030;85;21897;-49
2022/05/01 10:29:11;;;;;;;4.72;3.00;;;;;;;18.77;36.77;94837.17;1756960;81;20995;-53
2022/05/01 10:32:23;;;;;;;3.02;2.72;;;;;;;18.72;38.37;94828.15;1768318;81;21455;-51
2022/05/01 10:35:20;;;;;;;8.73;3.30;;;;;;;18.59;38.95;94830.59;1768336;80;21428;-50
2022/05/01 10:38:33;;;;;;;12.98;2.90;;;;;;;18.47;40.11;94828.98;1768096;81;21048;-52
2022/05/01 10:41:00;;;;;;;5.58;3.27;;;;;;;18.33;40.82;94829.91;1768074;80;22155;-51
2022/05/01 10:43:35;;;;;;;6.42;3.67;;;;;;;18.19;41.68;94836.34;1767965;81;21063;-50
2022/05/01 10:46:27;;;;;;;6.15;3.35;;;;;;;18.08;42.45;94833.31;1768400;80;21441;-51
2022/05/01 10:48:55;;;;;;;20.08;3.67;;;;;;;17.97;42.88;94834.63;1768152;81;21075;-51
2022/05/01 10:51:34;;;;;;;3.85;3.12;;;;;;;17.90;43.10;94840.63;1768339;81;20964;-52
2022/05/01 10:54:16;;;;;;;6.78;3.30;;;;;;;17.82;43.69;94831.94;1768085;81;21816;-53
2022/05/01 10:56:46;;;;;;;3.80;3.20;;;;;;;17.74;43.42;94827.30;1768031;80;21362;-52
2022/05/01 10:59:34;;;;;;;4.25;3.00;;;;;;;17.73;43.49;94828.56;1768032;81;20965;-54
2022/05/01 11:02:05;;;;;;;5.33;3.12;;;;;;;17.76;43.43;94830.36;1768271;81;20949;-51
2022/05/01 11:04:41;;;;;;;9.05;3.20;;;;;;;17.80;43.73;94824.72;1768332;80;20948;-50
2022/05/01 11:07:16;;;;;;;7.58;3.20;;;;;;;17.81;43.00;94833.84;1768136;81;21227;-51
2022/05/01 11:09:47;;;;;;;4.78;3.17;;;;;;;17.74;42.95;94830.86;1767925;80;20985;-53
2022/05/01 11:12:17;;;;;;;3.27;2.92;;;;;;;17.71;42.91;94830.46;1768307;80;21012;-53
2022/05/01 11:14:59;;;;;;;5.67;3.25;;;;;;;17.73;42.58;94838.30;1768034;81;21048;-52
2022/05/01 11:17:40;;;;;;;3.65;3.35;;;;;;;17.72;42.70;94827.03;1768179;81;21012;-51
2022/05/01 11:20:11;;;;;;;5.25;3.45;;;;;;;17.74;43.12;94828.70;1736005;81;21176;-52
2022/05/01 11:22:37;;;;;;;4.50;3.58;;;;;;;17.73;43.36;94833.52;1761738;81;21005;-54
2022/05/01 11:25:07;;;;;;;5.08;3.65;;;;;;;17.80;43.20;94829.53;1768051;80;21505;-54
2022/05/01 11:27:49;;;;;;;4.78;3.40;;;;;;;17.91;43.36;94827.61;1741071;81;21012;-53
2022/05/01 11:30:34;;;;;;;7.22;5.65;;;;;;;18.04;42.66;94821.64;1767677;81;21028;-51
2022/05/01 11:33:11;;;;;;;5.42;3.80;;;;;;;18.16;42.63;94817.70;1768584;81;21269;-51
2022/05/01 11:36:02;;;;;;;6.20;3.60;;;;;;;18.30;42.21;94825.30;1768043;80;21505;-52
2022/05/01 11:38:39;;;;;;;5.28;3.20;;;;;;;18.47;41.47;94812.91;1768231;81;21422;-51
2022/05/01 11:41:06;;;;;;;4.55;3.47;;;;;;;18.65;40.69;94818.84;1767997;80;21094;-53
2022/05/01 11:43:35;;;;;;;5.22;2.60;;;;;;;18.80;40.38;94815.27;1768280;80;21535;-51
2022/05/01 11:46:03;;;;;;;7.92;3.40;;;;;;;18.93;39.34;94819.78;1767983;80;21111;-50
2022/05/01 11:48:34;;;;;;;13.53;4.12;;;;;;;19.02;38.74;94811.19;1767996;80;20968;-51
2022/05/01 11:51:00;;;;;;;5.65;3.15;;;;;;;19.11;38.73;94812.39;1767998;81;20992;-51
2022/05/01 11:53:29;;;;;;;3.58;2.98;;;;;;;19.25;38.00;94810.07;1767945;80;21047;-50
2022/05/01 12:04:37;;;;;;;22.80;7.97;;;;;;;20.26;35.25;94797.34;1768422;81;21000;-51
2022/05/01 12:07:12;;;;;;;11.68;4.00;;;;;;;20.48;35.73;94801.52;1767959;81;21075;-50
2022/05/01 12:09:40;;;;;;;4.35;3.00;;;;;;;20.75;34.84;94799.30;1768110;80;20997;-51